Terminal Aerodrome Forecast
Issued by NWS Shreveport, LA

Home | Current Version | Previous Version | Text Only | Print | Product List | Glossary On
Versions: 1 2 3 4 5 6 7 8 9 10 11 12 13 14 15 16
000
FTUS44 KSHV 172300 RRA
TAFSHV
TAF
KSHV 172343Z 1800/1824 09006KT P6SM SCT060 BKN080
     FM180300 09005KT P6SM VCSH BKN050 OVC060
     FM180600 08005KT P6SM -RA OVC040
     FM181200 08006KT 5SM -RA BR SCT009 OVC020
     FM181500 08006KT 4SM -RA BR OVC008
     FM181800 08005KT P6SM OVC010=

USA.gov is the U.S. government's official web portal to all federal, state and local government web resources and services.